Latest Weather Observations for Cabramurra

IDN60901

Issued at 5:35 pm EDT Wednesday 22 October 2014 (issued every 10 minutes, with the page automatically refreshed every 10 minutes)

About weather observations | Map of Canberra area stations | Latest observations for Canberra area | Other Formats
Station Details ID: 072161 Name: CABRAMURRA SMHEA AWS Lat: -35.94 Lon: 148.38 Height: 1482.4 m
Data from the previous 72 hours. | See also: Recent months at Cabramurra
Date/Time
EDT
Tmp

°C
App
Tmp
°C
Dew
Point
°C
Rel
Hum
%
Delta-T

°C
Wind Press
QNH
hPa
Press
MSL
hPa
Rain
since
9 am
mm
Dir
 
Spd
km/h
Gust
km/h
Spd
kts
Gust
kts
22/05:30pm 17.5 13.2 7.0 50 5.7 WNW 19 26 10 14 - - 0.0
22/05:00pm 17.7 13.4 6.9 49 5.8 W 19 28 10 15 - - 0.0
22/04:30pm 17.9 13.8 6.4 47 6.1 W 17 30 9 16 - - 0.0
22/04:00pm 18.4 13.9 6.9 47 6.2 SW 20 28 11 15 - - 0.0
22/03:30pm 17.6 13.7 5.5 45 6.3 WNW 15 20 8 11 - - 0.0
22/03:00pm 17.5 12.3 5.4 45 6.3 WSW 22 32 12 17 - - 0.0
22/02:30pm 17.4 12.9 6.0 47 6.0 WSW 19 24 10 13 - - 0.0
22/02:00pm 16.9 13.2 8.1 56 4.8 WNW 17 20 9 11 - - 0.0
22/01:30pm 16.7 11.8 8.4 58 4.6 WNW 24 33 13 18 - - 0.0
22/01:00pm 16.3 12.5 9.0 62 4.1 WNW 19 28 10 15 - - 0.0
22/12:30pm 15.2 11.6 8.4 64 3.7 SW 17 26 9 14 - - 0.0
22/12:00pm 15.0 11.2 8.9 67 3.4 WNW 19 24 10 13 - - 0.0
22/11:30am 14.6 10.7 8.8 68 3.2 WNW 19 26 10 14 - - 0.0
22/11:00am 13.9 10.3 8.3 69 3.0 WNW 17 26 9 14 - - 0.0
22/10:30am 13.2 9.4 7.6 69 3.0 WNW 17 24 9 13 - - 0.0
22/10:00am 13.0 9.5 7.2 68 3.1 WNW 15 26 8 14 - - 0.0
22/09:30am 12.3 8.1 5.5 63 3.4 WNW 17 24 9 13 - - 0.0
22/09:00am 12.4 8.8 5.1 61 3.7 W 13 19 7 10 - - 0.0
22/08:30am 12.3 8.4 3.5 55 4.3 W 13 17 7 9 - - 0.0
22/08:00am 11.6 7.0 1.8 51 4.6 W 15 20 8 11 - - 0.0
22/07:30am 10.9 6.7 1.7 53 4.2 NW 13 17 7 9 - - 0.0
22/07:00am 10.6 6.4 1.9 55 4.0 SW 13 15 7 8 - - 0.0
22/06:30am 10.8 7.2 0.8 50 4.5 SSW 9 11 5 6 - - 0.0
22/06:00am 10.5 7.0 1.1 52 4.3 SSW 9 11 5 6 - - 0.0
22/05:30am 10.4 6.7 -0.1 48 4.6 SW 9 11 5 6 - - 0.0
22/05:00am 10.6 6.8 -0.8 45 5.0 SW 9 13 5 7 - - 0.0
22/04:30am 10.2 6.5 -3.1 39 5.5 WSW 7 9 4 5 - - 0.0
22/04:00am 10.0 7.8 -1.7 44 5.0 CALM 0 2 0 1 - - 0.0
22/03:30am 10.0 7.6 4.2 67 2.8 NNE 6 7 3 4 - - 0.0
22/03:00am 10.4 8.0 5.2 70 2.6 N 7 9 4 5 - - 0.0
22/02:30am 10.0 9.2 6.5 79 1.8 CALM 0 0 0 0 - - 0.0
22/02:00am 9.5 8.0 8.3 92 0.6 NE 6 7 3 4 - - 0.0
22/01:30am 9.4 7.9 9.1 98 0.2 N 7 9 4 5 - - 0.0
22/01:00am 9.1 7.7 9.0 99 0.1 NE 6 7 3 4 - - 0.0
22/12:30am 7.9 6.1 7.8 99 0.1 NE 7 9 4 5 - - 0.0
22/12:00am 7.8 6.5 7.7 99 0.1 ENE 4 7 2 4 - - 0.0
 
Date/Time
EDT
Tmp

°C
App
Tmp
°C
Dew
Point
°C
Rel
Hum
%
Delta-T

°C
Wind Press
QNH
hPa
Press
MSL
hPa
Rain
since
9 am
mm
Dir
 
Spd
km/h
Gust
km/h
Spd
kts
Gust
kts
21/11:30pm 8.1 7.6 8.0 99 0.1 CALM 0 0 0 0 - - 0.0
21/11:00pm 8.1 6.9 8.0 99 0.1 NW 4 7 2 4 - - 0.0
21/10:30pm 8.8 7.4 8.7 99 0.1 N 6 11 3 6 - - 0.0
21/10:00pm 9.0 7.1 8.9 99 0.1 NNE 9 11 5 6 - - 0.0
21/09:30pm 9.3 7.6 8.5 95 0.4 NE 7 11 4 6 - - 0.0
21/09:00pm 9.8 9.0 8.2 90 0.8 NE 2 7 1 4 - - 0.0
21/08:30pm 11.1 9.5 8.7 85 1.3 NNW 7 11 4 6 - - 0.0
21/08:00pm 11.7 10.0 7.4 75 2.3 WSW 6 11 3 6 - - 0.0
21/07:30pm 12.3 10.0 7.6 73 2.5 W 9 13 5 7 - - 0.0
21/07:00pm 13.8 10.9 8.0 68 3.1 WNW 13 17 7 9 - - 0.0
21/06:30pm 14.9 11.9 7.9 63 3.8 W 13 20 7 11 - - 0.0
21/06:00pm 15.3 12.1 8.3 63 3.8 W 15 20 8 11 - - 0.0
21/05:30pm 15.8 12.6 8.5 62 4.0 WNW 15 22 8 12 - - 0.0
21/05:00pm 16.1 12.7 7.6 57 4.6 W 15 22 8 12 - - 0.0
21/04:30pm 15.6 11.8 5.8 52 5.1 W 15 24 8 13 - - 0.0
21/04:00pm 16.4 12.7 6.5 52 5.3 W 15 22 8 12 - - 0.0
21/03:30pm 15.9 11.5 4.9 48 5.6 W 17 22 9 12 - - 0.0
21/03:00pm 16.5 13.4 7.2 54 5.0 W 13 20 7 11 - - 0.0
21/02:30pm 16.0 12.4 6.7 54 4.9 W 15 24 8 13 - - 0.0
21/02:00pm 15.1 11.4 6.4 56 4.6 W 15 20 8 11 - - 0.0
21/01:30pm 15.1 11.7 6.1 55 4.7 NW 13 24 7 13 - - 0.0
21/01:00pm 14.9 12.5 7.0 59 4.2 WSW 9 17 5 9 - - 0.0
21/12:30pm 14.0 11.0 5.9 58 4.2 WNW 11 17 6 9 - - 0.0
21/12:00pm 12.9 9.3 5.1 59 3.9 NNW 13 19 7 10 - - 0.0
21/11:30am 12.4 9.8 7.7 73 2.5 NNW 11 15 6 8 - - 0.0
21/11:00am 12.4 11.0 9.4 82 1.6 NW 7 13 4 7 - - 0.0
21/10:30am 10.8 9.0 8.0 83 1.5 NNW 7 11 4 6 - - 0.0
21/10:00am 10.0 9.2 8.3 89 0.9 WNW 2 7 1 4 - - 0.0
21/09:30am 9.9 8.9 7.2 83 1.4 NNE 2 7 1 4 - - 0.0
21/09:00am 9.0 7.1 7.6 91 0.7 E 7 11 4 6 - - 0.0
21/08:30am 7.2 4.8 6.8 97 0.2 E 9 13 5 7 - - 0.0
21/08:00am 5.3 1.7 5.2 99 0.0 E 13 17 7 9 - - 0.0
21/07:30am 3.8 -0.8 3.7 99 0.0 E 17 22 9 12 - - 0.0
21/07:00am 3.0 -1.4 2.9 99 0.0 E 15 20 8 11 - - 0.0
21/06:30am 2.9 -1.9 2.8 99 0.0 ESE 17 24 9 13 - - 0.0
21/06:00am 2.8 -1.6 2.7 99 0.0 E 15 24 8 13 - - 0.0
21/05:30am 3.0 -1.4 2.9 99 0.0 E 15 20 8 11 - - 0.0
21/05:00am 2.9 -2.2 2.8 99 0.0 E 19 28 10 15 - - 0.0
21/04:30am 2.9 -2.4 2.8 99 0.0 E 20 32 11 17 - - 0.0
21/04:00am 3.1 -2.6 3.0 99 0.0 E 22 32 12 17 - - 0.0
21/03:30am 3.4 -3.0 3.3 99 0.0 E 26 35 14 19 - - 0.0
21/03:00am 3.6 -3.5 3.5 99 0.0 E 30 43 16 23 - - 0.0
21/02:30am 3.8 -3.8 3.7 99 0.0 E 33 44 18 24 - - 0.0
21/02:00am 4.0 -3.4 3.9 99 0.0 E 32 43 17 23 - - 0.0
21/01:30am 4.2 -3.2 4.1 99 0.0 E 32 46 17 25 - - 0.0
21/01:00am 4.4 -2.6 4.3 99 0.0 E 30 43 16 23 - - 0.0
21/12:30am 4.6 -1.9 4.5 99 0.0 E 28 37 15 20 - - 0.0
21/12:00am 4.7 -2.6 4.6 99 0.0 E 32 41 17 22 - - 0.0
 
Date/Time
EDT
Tmp

°C
App
Tmp
°C
Dew
Point
°C
Rel
Hum
%
Delta-T

°C
Wind Press
QNH
hPa
Press
MSL
hPa
Rain
since
9 am
mm
Dir
 
Spd
km/h
Gust
km/h
Spd
kts
Gust
kts
20/11:30pm 4.9 -2.3 4.8 99 0.0 E 32 44 17 24 - - 0.0
20/11:00pm 5.1 -1.7 5.0 99 0.0 E 30 41 16 22 - - 0.0
20/10:30pm 5.3 -2.1 5.2 99 0.0 E 33 46 18 25 - - 0.0
20/10:00pm 5.4 -1.7 5.3 99 0.0 ESE 32 44 17 24 - - 0.0
20/09:30pm 5.6 -1.5 5.5 99 0.0 E 32 44 17 24 - - 0.0
20/09:01pm 5.8 -1.3 5.7 99 0.0 ESE 32 50 17 27 - - 0.0
20/09:00pm 5.8 -1.3 5.7 99 0.0 E 32 44 17 24 - - 0.0
20/08:30pm 6.1 -0.9 6.0 99 0.0 E 32 46 17 25 - - 0.0
20/08:00pm 6.2 -1.3 6.1 99 0.0 E 35 48 19 26 - - 0.0
20/07:30pm 6.8 -0.7 6.1 95 0.3 E 35 48 19 26 - - 0.0
20/07:00pm 7.4 -0.6 5.9 90 0.7 E 37 48 20 26 - - 0.0
20/06:30pm 8.6 1.0 5.9 83 1.3 E 35 50 19 27 - - 0.0
20/06:00pm 10.6 4.4 6.2 74 2.2 E 28 39 15 21 - - 0.0
20/05:30pm 11.9 5.3 6.2 68 2.9 E 30 39 16 21 - - 0.0
20/05:00pm 13.1 8.7 6.7 65 3.3 ESE 19 35 10 19 - - 0.0
20/04:30pm 14.9 12.3 6.2 56 4.5 E 9 17 5 9 - - 0.0
20/04:00pm 17.5 13.6 7.3 51 5.5 WSW 17 24 9 13 - - 0.0
20/03:30pm 18.7 14.5 7.5 48 6.1 WNW 19 28 10 15 - - 0.0
20/03:00pm 18.5 13.9 6.4 45 6.5 WNW 20 30 11 16 - - 0.0
20/02:30pm 18.5 13.9 6.4 45 6.5 W 20 35 11 19 - - 0.0
20/02:00pm 18.5 13.4 3.2 36 7.7 WSW 19 37 10 20 - - 0.0
20/01:30pm 19.3 14.6 3.1 34 8.2 W 17 28 9 15 - - 0.0
20/01:00pm 19.1 13.8 2.9 34 8.2 WNW 20 35 11 19 - - 0.0
20/12:30pm 18.9 13.5 1.4 31 8.5 WNW 19 30 10 16 - - 0.0
20/12:00pm 18.6 15.5 7.4 48 6.1 NW 13 20 7 11 - - 0.0
20/11:30am 17.3 13.2 2.1 36 7.4 NW 13 22 7 12 - - 0.0
20/11:00am 17.0 13.4 3.0 39 7.0 NW 11 19 6 10 - - 0.0
20/10:30am 16.3 12.7 3.0 41 6.6 NNW 11 15 6 8 - - 0.0
20/10:00am 16.0 12.6 4.1 45 6.0 NNW 11 15 6 8 - - 0.0
20/09:30am 15.3 12.1 3.1 44 6.0 N 9 13 5 7 - - 0.0
20/09:00am 15.1 12.0 3.6 46 5.7 N 9 15 5 8 - - 0.0
20/08:30am 14.5 11.3 3.0 46 5.6 NNW 9 13 5 7 - - 0.0
20/08:00am 13.9 10.1 1.5 43 5.8 NNW 11 19 6 10 - - 0.0
20/07:30am 13.3 9.4 1.0 43 5.7 NNW 11 15 6 8 - - 0.0
20/07:00am 12.6 8.6 0.7 44 5.5 NW 11 15 6 8 - - 0.0
20/06:30am 11.7 8.1 0.8 47 5.0 NW 9 13 5 7 - - 0.0
20/06:00am 12.4 8.4 0.5 44 5.4 NW 11 17 6 9 - - 0.0
20/05:30am 12.7 8.3 0.5 43 5.6 WNW 13 24 7 13 - - 0.0
20/05:00am 13.0 8.9 0.1 41 5.9 NW 11 20 6 11 - - 0.0
20/04:30am 12.8 8.4 0.2 42 5.7 NNW 13 20 7 11 - - 0.0
20/04:00am 12.9 8.5 0.3 42 5.7 NW 13 19 7 10 - - 0.0
20/03:30am 12.7 8.6 0.1 42 5.7 NW 11 15 6 8 - - 0.0
20/03:00am 13.1 8.3 0.5 42 5.8 NW 15 20 8 11 - - 0.0
20/02:30am 13.4 8.3 0.8 42 5.8 NW 17 20 9 11 - - 0.0
20/02:00am 13.7 8.6 0.7 41 6.0 NW 17 24 9 13 - - 0.0
20/01:30am 13.3 9.0 1.0 43 5.7 NW 13 19 7 10 - - 0.0
20/01:00am 13.3 8.2 0.7 42 5.8 NW 17 20 9 11 - - 0.0
20/12:30am 13.7 8.6 1.0 42 5.9 NW 17 24 9 13 - - 0.0
20/12:00am 13.1 8.5 1.5 45 5.4 NW 15 20 8 11 - - 0.0
 
Date/Time
EDT
Tmp

°C
App
Tmp
°C
Dew
Point
°C
Rel
Hum
%
Delta-T

°C
Wind Press
QNH
hPa
Press
MSL
hPa
Rain
since
9 am
mm
Dir
 
Spd
km/h
Gust
km/h
Spd
kts
Gust
kts
19/11:30pm 13.5 8.6 1.8 45 5.5 NW 17 24 9 13 - - 0.0
19/11:00pm 13.6 9.1 1.9 45 5.5 WNW 15 20 8 11 - - 0.0
19/10:30pm 13.7 9.5 1.7 44 5.7 WNW 13 20 7 11 - - 0.0
19/10:00pm 12.7 9.4 2.3 49 4.9 WNW 9 13 5 7 - - 0.0
19/09:30pm 12.0 8.8 3.0 54 4.3 W 9 11 5 6 - - 0.0
19/09:00pm 11.9 8.7 5.1 63 3.4 NW 11 13 6 7 - - 0.0
19/08:30pm 11.7 8.8 4.9 63 3.4 NW 9 9 5 5 - - 0.0
19/08:00pm 12.4 9.6 5.3 62 3.6 W 9 13 5 7 - - 0.0
19/07:30pm 12.7 9.5 4.9 59 3.9 W 11 15 6 8 - - 0.0
19/07:00pm 13.0 9.3 4.4 56 4.3 WSW 13 20 7 11 - - 0.0
19/06:30pm 14.1 10.4 4.7 53 4.7 W 13 20 7 11 - - 0.0
19/06:00pm 14.6 11.0 3.1 46 5.6 W 11 20 6 11 - - 0.0

Latest Capital City Observations: Canberra | Sydney | Melbourne | Brisbane | Adelaide | Perth | Hobart | Darwin

Other Formats:

Comma delimited format used in spreadsheet applications
http://www.bom.gov.au/fwo/IDN60903/IDN60903.95916.axf

JavaScript Object Notation format (JSON) in row-major order
http://www.bom.gov.au/fwo/IDN60903/IDN60903.95916.json